Time;durP1;ratioP1;P1;durP2;ratioP2;P2;SDS_P1;SDS_P2;PMS_P1;PMS_P2;Temp;Humidity;BMP_temperature;BMP_pressure;BME280_temperature;BME280_humidity;BME280_pressure;Samples;Min_cycle;Max_cycle;Signal;HPM_P1;HPM_P2
2020/12/14 00:01:14;;;;;;;46.45;33.60;;;;;;;;;;5067970;28;20175;-57
2020/12/14 00:03:39;;;;;;;45.33;34.40;;;;;;;;;;5070752;28;20191;-56
2020/12/14 00:06:04;;;;;;;46.38;33.20;;;;;;;;;;5069946;28;20687;-57
2020/12/14 00:08:29;;;;;;;45.63;32.60;;;;;;;;;;5070338;28;20209;-56
2020/12/14 00:10:54;;;;;;;45.05;33.10;;;;;;;;;;5066312;28;20185;-57
2020/12/14 00:13:19;;;;;;;43.88;33.50;;;;;;;;;;5070799;28;20649;-57
2020/12/14 00:15:45;;;;;;;46.25;33.33;;;;;;;;;;5070334;28;20171;-56
2020/12/14 00:18:10;;;;;;;42.90;33.37;;;;;;;;;;5064833;28;20206;-57
2020/12/14 00:20:35;;;;;;;50.33;35.33;;;;;;;;;;5068241;28;20233;-57
2020/12/14 00:23:00;;;;;;;42.15;32.65;;;;;;;;;;5069764;28;20226;-56
2020/12/14 00:25:26;;;;;;;47.63;33.75;;;;;;;;;;5070223;28;20188;-57
2020/12/14 00:27:51;;;;;;;45.95;35.17;;;;;;;;;;5068404;28;20220;-56
2020/12/14 00:30:16;;;;;;;43.13;31.95;;;;;;;;;;5066389;28;20172;-57
2020/12/14 00:32:41;;;;;;;42.40;33.10;;;;;;;;;;5065212;28;20184;-57
2020/12/14 00:35:06;;;;;;;48.25;34.50;;;;;;;;;;5069329;28;20176;-56
2020/12/14 00:37:31;;;;;;;44.35;33.22;;;;;;;;;;5076690;28;20163;-57
2020/12/14 00:39:56;;;;;;;41.80;32.40;;;;;;;;;;5067331;28;20203;-56
2020/12/14 00:42:21;;;;;;;47.20;32.50;;;;;;;;;;5068482;28;20220;-56
2020/12/14 00:44:47;;;;;;;43.05;33.60;;;;;;;;;;5069758;28;20689;-57
2020/12/14 00:47:12;;;;;;;42.40;32.53;;;;;;;;;;5069987;28;20179;-57
2020/12/14 00:49:37;;;;;;;42.10;31.83;;;;;;;;;;5066960;28;20211;-57
2020/12/14 00:52:04;;;;;;;41.70;31.30;;;;;;;;;;5069288;28;20254;-57
2020/12/14 00:54:29;;;;;;;45.23;33.30;;;;;;;;;;5068339;28;20935;-57
2020/12/14 00:56:54;;;;;;;40.90;32.23;;;;;;;;;;5069583;28;20614;-56
2020/12/14 00:59:19;;;;;;;42.72;32.45;;;;;;;;;;5067196;28;20603;-57
2020/12/14 01:01:49;;;;;;;44.25;30.98;;;;;;;;;;5069197;28;20706;-56
2020/12/14 01:04:14;;;;;;;42.70;31.20;;;;;;;;;;5069634;28;20171;-56
2020/12/14 01:06:39;;;;;;;45.38;30.40;;;;;;;;;;5065070;28;20592;-56
2020/12/14 01:09:04;;;;;;;43.35;30.90;;;;;;;;;;5065682;28;20206;-56
2020/12/14 01:11:29;;;;;;;44.53;32.47;;;;;;;;;;5069672;28;20174;-56
2020/12/14 01:13:55;;;;;;;47.67;32.75;;;;;;;;;;5069422;28;20521;-56
2020/12/14 01:16:20;;;;;;;46.90;32.10;;;;;;;;;;5069179;28;20209;-56
2020/12/14 01:18:45;;;;;;;46.83;31.60;;;;;;;;;;5066811;28;20190;-56
2020/12/14 01:21:10;;;;;;;45.50;32.17;;;;;;;;;;5067484;28;20236;-57
2020/12/14 01:23:35;;;;;;;45.47;32.72;;;;;;;;;;5068345;28;20233;-57
2020/12/14 01:26:00;;;;;;;42.67;30.27;;;;;;;;;;5069204;28;20530;-56
2020/12/14 01:28:25;;;;;;;45.72;31.85;;;;;;;;;;5069135;28;20237;-56
2020/12/14 01:30:51;;;;;;;44.90;32.85;;;;;;;;;;5065979;28;20176;-56
2020/12/14 01:33:16;;;;;;;47.00;32.03;;;;;;;;;;5069099;28;20559;-57
2020/12/14 01:35:41;;;;;;;49.50;34.67;;;;;;;;;;5069140;28;20225;-56
2020/12/14 01:38:06;;;;;;;45.22;31.77;;;;;;;;;;5069548;28;20171;-56
2020/12/14 01:40:31;;;;;;;46.50;32.30;;;;;;;;;;5067468;28;20206;-56
2020/12/14 01:42:56;;;;;;;45.43;32.87;;;;;;;;;;5067187;28;20664;-57
2020/12/14 01:45:22;;;;;;;49.05;32.72;;;;;;;;;;5069015;28;20219;-56
2020/12/14 01:47:49;;;;;;;49.40;32.57;;;;;;;;;;5069086;28;20179;-56
2020/12/14 01:50:14;;;;;;;50.10;32.90;;;;;;;;;;5067358;28;20215;-57
2020/12/14 01:52:41;;;;;;;53.27;32.50;;;;;;;;;;5069068;28;21143;-57
2020/12/14 01:55:07;;;;;;;48.73;32.83;;;;;;;;;;5067680;28;20176;-57
2020/12/14 01:57:32;;;;;;;45.93;34.80;;;;;;;;;;5069205;28;20611;-56
2020/12/14 01:59:57;;;;;;;46.90;32.77;;;;;;;;;;5067066;28;20604;-57
2020/12/14 02:02:23;;;;;;;44.67;32.07;;;;;;;;;;5068607;28;20296;-56
2020/12/14 02:04:48;;;;;;;43.57;31.57;;;;;;;;;;5068936;28;20172;-56
2020/12/14 02:07:13;;;;;;;45.30;32.60;;;;;;;;;;5063732;28;20259;-56
2020/12/14 02:09:38;;;;;;;45.83;31.10;;;;;;;;;;5061686;28;20210;-57
2020/12/14 02:12:04;;;;;;;44.80;29.70;;;;;;;;;;5065483;28;20174;-57
2020/12/14 02:14:29;;;;;;;47.83;32.40;;;;;;;;;;5069081;28;20224;-57
2020/12/14 02:16:54;;;;;;;49.80;31.05;;;;;;;;;;5066381;28;20761;-57
2020/12/14 02:19:19;;;;;;;43.63;32.15;;;;;;;;;;5065687;28;20372;-56
2020/12/14 02:21:48;;;;;;;46.53;31.73;;;;;;;;;;5067331;28;20180;-57
2020/12/14 02:24:13;;;;;;;43.60;31.93;;;;;;;;;;5068058;28;20191;-56
2020/12/14 02:26:39;;;;;;;43.93;31.13;;;;;;;;;;5068451;28;20608;-56
2020/12/14 02:29:04;;;;;;;47.77;31.60;;;;;;;;;;5066978;28;20205;-57
2020/12/14 02:31:29;;;;;;;47.17;30.05;;;;;;;;;;5064425;28;20176;-56
2020/12/14 02:33:54;;;;;;;43.80;31.17;;;;;;;;;;5069104;28;20697;-57
2020/12/14 02:36:19;;;;;;;40.88;29.27;;;;;;;;;;5071966;28;20178;-57
2020/12/14 02:38:44;;;;;;;43.00;29.48;;;;;;;;;;5071765;28;20213;-56
2020/12/14 02:41:10;;;;;;;40.47;29.20;;;;;;;;;;5063506;28;20524;-57
2020/12/14 02:43:35;;;;;;;44.33;30.63;;;;;;;;;;5071537;28;20211;-56
2020/12/14 02:46:01;;;;;;;44.05;29.75;;;;;;;;;;5072152;28;20609;-57
2020/12/14 02:48:26;;;;;;;39.22;26.70;;;;;;;;;;5071769;28;20288;-57
2020/12/14 02:50:51;;;;;;;48.83;30.42;;;;;;;;;;5068354;28;20182;-57
2020/12/14 02:53:16;;;;;;;42.70;28.75;;;;;;;;;;5070866;28;20620;-57
2020/12/14 02:55:41;;;;;;;47.30;29.77;;;;;;;;;;5071117;28;20201;-55
2020/12/14 02:58:06;;;;;;;48.45;28.90;;;;;;;;;;5068084;28;20195;-57
2020/12/14 03:00:31;;;;;;;45.00;29.25;;;;;;;;;;5070471;28;20537;-57
2020/12/14 03:02:57;;;;;;;44.10;29.75;;;;;;;;;;5072054;28;20192;-56
2020/12/14 03:05:22;;;;;;;39.07;27.03;;;;;;;;;;5071973;28;20183;-56
2020/12/14 03:07:47;;;;;;;39.10;27.73;;;;;;;;;;5069477;28;20176;-57
2020/12/14 03:10:12;;;;;;;37.03;25.43;;;;;;;;;;5070097;28;20185;-61
2020/12/14 03:12:37;;;;;;;39.70;25.30;;;;;;;;;;5071645;28;20599;-56
2020/12/14 03:15:03;;;;;;;36.67;26.53;;;;;;;;;;5072095;28;20177;-57
2020/12/14 03:17:28;;;;;;;40.73;26.90;;;;;;;;;;5071490;28;20552;-56
2020/12/14 03:19:53;;;;;;;37.17;25.50;;;;;;;;;;5066482;28;20207;-56
2020/12/14 03:24:54;;;;;;;34.43;24.43;;;;;;;;;;5831363;22;20224;-58
2020/12/14 03:27:19;;;;;;;37.87;26.20;;;;;;;;;;5027289;28;20622;-55
2020/12/14 03:29:44;;;;;;;32.80;23.65;;;;;;;;;;5020131;28;20208;-56
2020/12/14 03:32:09;;;;;;;36.80;25.20;;;;;;;;;;5022477;28;20604;-56
2020/12/14 03:34:34;;;;;;;37.13;23.55;;;;;;;;;;5027673;28;20313;-58
2020/12/14 03:36:59;;;;;;;32.77;23.30;;;;;;;;;;5028868;28;20665;-56
2020/12/14 03:39:25;;;;;;;35.85;24.35;;;;;;;;;;5021683;28;20275;-57
2020/12/14 03:41:50;;;;;;;45.25;25.75;;;;;;;;;;5025548;28;20206;-56
2020/12/14 03:44:15;;;;;;;36.60;23.93;;;;;;;;;;5020777;28;20556;-56
2020/12/14 03:46:40;;;;;;;40.13;25.58;;;;;;;;;;5020456;28;20176;-56
2020/12/14 03:49:05;;;;;;;37.05;23.95;;;;;;;;;;5026824;28;20193;-56
2020/12/14 03:51:31;;;;;;;33.45;22.60;;;;;;;;;;5021444;28;20188;-56
2020/12/14 03:53:56;;;;;;;33.63;22.93;;;;;;;;;;5025156;28;20174;-56
2020/12/14 03:56:22;;;;;;;32.77;22.57;;;;;;;;;;5027914;28;20255;-56
2020/12/14 03:58:47;;;;;;;32.83;22.17;;;;;;;;;;5027906;28;20234;-57
2020/12/14 04:01:12;;;;;;;33.33;21.10;;;;;;;;;;5025694;28;20263;-56
2020/12/14 04:03:38;;;;;;;28.17;21.47;;;;;;;;;;5014564;28;20181;-56
2020/12/14 04:06:03;;;;;;;31.53;21.73;;;;;;;;;;5021524;28;20191;-55
2020/12/14 04:08:28;;;;;;;30.83;20.67;;;;;;;;;;5019605;28;20236;-56
2020/12/14 04:10:53;;;;;;;28.77;20.30;;;;;;;;;;5015755;28;20173;-56
2020/12/14 04:13:19;;;;;;;28.52;19.42;;;;;;;;;;5020376;28;20183;-57
2020/12/14 04:15:44;;;;;;;30.33;19.77;;;;;;;;;;5019446;28;20599;-57
2020/12/14 04:18:09;;;;;;;32.73;20.80;;;;;;;;;;5017600;28;20180;-56
2020/12/14 04:20:34;;;;;;;29.88;19.67;;;;;;;;;;5022932;28;20184;-57
2020/12/14 04:22:59;;;;;;;26.17;19.63;;;;;;;;;;5024496;28;20173;-56
2020/12/14 04:25:24;;;;;;;26.63;19.63;;;;;;;;;;5013710;28;20704;-56
2020/12/14 04:27:50;;;;;;;25.03;17.20;;;;;;;;;;5015327;28;20179;-57
2020/12/14 04:30:15;;;;;;;22.93;17.17;;;;;;;;;;5017278;28;20195;-56
2020/12/14 04:32:40;;;;;;;27.83;18.70;;;;;;;;;;5006869;28;20297;-56
2020/12/14 04:35:06;;;;;;;25.95;18.38;;;;;;;;;;5011906;28;20191;-57
2020/12/14 04:37:31;;;;;;;24.67;19.23;;;;;;;;;;5005813;28;20181;-57
2020/12/14 04:39:56;;;;;;;25.90;17.80;;;;;;;;;;5005811;28;20180;-56
2020/12/14 04:42:22;;;;;;;29.40;18.85;;;;;;;;;;5013790;28;20175;-56
2020/12/14 04:44:47;;;;;;;25.53;18.50;;;;;;;;;;5008055;28;20195;-56
2020/12/14 04:47:12;;;;;;;24.30;18.53;;;;;;;;;;5005372;28;20182;-56
2020/12/14 04:49:39;;;;;;;23.37;18.80;;;;;;;;;;4999234;28;20200;-57
2020/12/14 04:52:04;;;;;;;26.60;19.67;;;;;;;;;;5004826;28;20220;-57
2020/12/14 04:54:30;;;;;;;26.03;19.43;;;;;;;;;;5016644;28;20617;-57
2020/12/14 04:56:58;;;;;;;28.63;20.70;;;;;;;;;;5016384;28;20271;-58
2020/12/14 04:59:24;;;;;;;25.97;19.70;;;;;;;;;;5014731;28;20201;-57
2020/12/14 05:01:49;;;;;;;22.90;18.10;;;;;;;;;;5000474;28;20604;-57
2020/12/14 05:04:14;;;;;;;28.57;20.03;;;;;;;;;;5010546;28;20604;-57
2020/12/14 05:06:50;;;;;;;30.90;21.50;;;;;;;;;;5016202;28;20176;-57
2020/12/14 05:09:18;;;;;;;29.70;20.73;;;;;;;;;;5008440;28;20204;-58
2020/12/14 05:11:44;;;;;;;28.63;20.20;;;;;;;;;;5019662;28;20598;-58
2020/12/14 05:14:13;;;;;;;31.37;22.00;;;;;;;;;;5012046;28;20726;-57
2020/12/14 05:16:38;;;;;;;40.07;22.57;;;;;;;;;;5016701;28;20182;-57
2020/12/14 05:19:16;;;;;;;30.75;21.77;;;;;;;;;;5018312;28;21155;-57
2020/12/14 05:22:07;;;;;;;36.10;23.50;;;;;;;;;;5015210;28;20227;-57
2020/12/14 05:24:32;;;;;;;35.17;23.20;;;;;;;;;;5010936;28;20730;-57
2020/12/14 05:26:58;;;;;;;35.25;22.85;;;;;;;;;;5017356;28;20701;-57
2020/12/14 05:29:27;;;;;;;30.33;21.23;;;;;;;;;;5019940;28;20204;-57
2020/12/14 05:31:59;;;;;;;28.37;19.83;;;;;;;;;;5017069;28;21170;-58
2020/12/14 05:34:35;;;;;;;30.50;20.40;;;;;;;;;;5013779;28;20599;-57
2020/12/14 05:37:02;;;;;;;34.53;21.53;;;;;;;;;;5008469;28;20597;-58
2020/12/14 05:39:28;;;;;;;32.60;21.60;;;;;;;;;;5013849;28;20603;-57
2020/12/14 05:41:53;;;;;;;29.80;21.33;;;;;;;;;;4998914;28;21058;-58
2020/12/14 05:44:28;;;;;;;28.60;20.70;;;;;;;;;;5001353;28;20604;-58
2020/12/14 05:46:53;;;;;;;33.40;22.00;;;;;;;;;;5004799;28;20193;-57
2020/12/14 05:49:18;;;;;;;31.90;21.63;;;;;;;;;;5008780;28;21056;-59
2020/12/14 05:51:43;;;;;;;31.80;21.63;;;;;;;;;;5009669;28;20589;-58
2020/12/14 05:54:11;;;;;;;31.50;22.27;;;;;;;;;;5006045;28;20208;-58
2020/12/14 05:56:37;;;;;;;31.30;22.33;;;;;;;;;;5013814;28;20189;-58
2020/12/14 05:59:03;;;;;;;30.50;22.10;;;;;;;;;;5014847;28;20595;-58
2020/12/14 06:02:00;;;;;;;29.87;20.37;;;;;;;;;;5014185;28;20182;-58
2020/12/14 06:04:26;;;;;;;28.23;19.87;;;;;;;;;;4992543;28;20663;-58
2020/12/14 06:06:54;;;;;;;30.10;21.23;;;;;;;;;;5018523;28;20615;-58
2020/12/14 06:09:24;;;;;;;33.87;20.73;;;;;;;;;;5021270;28;20228;-58
2020/12/14 06:11:50;;;;;;;29.27;21.57;;;;;;;;;;5019667;28;20604;-58
2020/12/14 06:14:16;;;;;;;31.03;20.87;;;;;;;;;;5005915;28;21570;-58
2020/12/14 06:16:45;;;;;;;27.37;21.03;;;;;;;;;;5008052;28;20625;-58
2020/12/14 06:19:10;;;;;;;28.57;21.27;;;;;;;;;;5004259;28;20189;-58
2020/12/14 06:21:47;;;;;;;32.03;21.08;;;;;;;;;;5000632;28;20611;-58
2020/12/14 06:24:17;;;;;;;29.20;20.57;;;;;;;;;;5002207;28;20268;-58
2020/12/14 06:26:43;;;;;;;27.97;20.63;;;;;;;;;;4999988;28;21036;-58
2020/12/14 06:29:08;;;;;;;29.60;20.23;;;;;;;;;;5003869;28;20651;-58
2020/12/14 06:31:35;;;;;;;29.70;20.60;;;;;;;;;;5001410;28;21225;-58
2020/12/14 06:34:03;;;;;;;26.30;19.30;;;;;;;;;;4996364;28;20219;-59
2020/12/14 06:36:35;;;;;;;28.60;19.57;;;;;;;;;;5020770;28;20653;-58
2020/12/14 06:39:00;;;;;;;31.03;21.27;;;;;;;;;;5019949;28;20622;-58
2020/12/14 06:41:30;;;;;;;29.55;20.85;;;;;;;;;;4997509;28;20616;-58
2020/12/14 06:44:05;;;;;;;27.73;20.13;;;;;;;;;;5014206;28;20189;-58
2020/12/14 06:46:32;;;;;;;31.87;21.47;;;;;;;;;;5024603;28;20628;-58
2020/12/14 06:48:58;;;;;;;26.30;20.27;;;;;;;;;;5009369;28;20653;-57
2020/12/14 06:51:23;;;;;;;28.50;20.30;;;;;;;;;;5011737;28;20640;-58
2020/12/14 06:53:52;;;;;;;28.63;19.55;;;;;;;;;;5009957;28;20199;-57
2020/12/14 06:56:38;;;;;;;33.30;21.47;;;;;;;;;;5016853;28;20185;-58
2020/12/14 06:59:23;;;;;;;27.70;20.37;;;;;;;;;;5006066;28;20626;-58
2020/12/14 07:01:55;;;;;;;25.80;19.53;;;;;;;;;;5011357;28;20630;-58
2020/12/14 07:04:20;;;;;;;25.30;19.57;;;;;;;;;;5012780;28;20605;-59
2020/12/14 07:06:45;;;;;;;28.10;19.42;;;;;;;;;;5010195;28;20604;-58
2020/12/14 07:09:23;;;;;;;26.25;20.30;;;;;;;;;;5022837;28;20192;-57
2020/12/14 07:11:48;;;;;;;39.30;23.70;;;;;;;;;;5020438;28;20171;-58
2020/12/14 07:14:26;;;;;;;30.83;22.35;;;;;;;;;;5017256;28;20600;-58
2020/12/14 07:16:51;;;;;;;26.50;20.00;;;;;;;;;;5022623;28;20643;-57
2020/12/14 07:19:16;;;;;;;29.57;21.00;;;;;;;;;;5007306;28;20634;-57
2020/12/14 07:21:48;;;;;;;28.50;21.60;;;;;;;;;;5019324;28;20304;-57
2020/12/14 07:24:15;;;;;;;34.87;22.90;;;;;;;;;;5003834;28;20263;-58
2020/12/14 07:26:41;;;;;;;31.77;23.33;;;;;;;;;;5016583;28;20635;-58
2020/12/14 07:29:07;;;;;;;29.73;21.73;;;;;;;;;;5021862;28;20742;-58
2020/12/14 07:31:33;;;;;;;28.17;21.30;;;;;;;;;;5005406;28;20213;-58
2020/12/14 07:33:58;;;;;;;31.80;21.57;;;;;;;;;;5018867;28;20606;-58
2020/12/14 07:36:24;;;;;;;27.87;22.37;;;;;;;;;;5012286;28;20181;-57
2020/12/14 07:38:51;;;;;;;29.27;22.77;;;;;;;;;;5016048;28;20661;-58
2020/12/14 07:41:16;;;;;;;29.17;24.13;;;;;;;;;;5007609;28;20627;-57
2020/12/14 07:43:43;;;;;;;32.17;23.43;;;;;;;;;;5018532;28;20627;-57
2020/12/14 07:46:15;;;;;;;29.83;23.30;;;;;;;;;;5018815;28;20183;-58
2020/12/14 07:48:40;;;;;;;31.27;22.97;;;;;;;;;;5012852;28;20633;-58
2020/12/14 07:51:06;;;;;;;38.37;27.40;;;;;;;;;;5021321;28;20603;-58
2020/12/14 07:53:31;;;;;;;35.70;27.00;;;;;;;;;;5008235;28;20648;-58
2020/12/14 07:56:01;;;;;;;32.85;26.10;;;;;;;;;;5021460;28;20772;-58
2020/12/14 07:58:26;;;;;;;32.80;24.93;;;;;;;;;;5011334;28;20180;-58
2020/12/14 08:00:51;;;;;;;31.63;24.20;;;;;;;;;;5004304;28;20707;-58
2020/12/14 08:03:17;;;;;;;32.53;23.90;;;;;;;;;;5002184;28;20580;-58
2020/12/14 08:05:42;;;;;;;27.83;21.60;;;;;;;;;;5005610;28;20178;-58
2020/12/14 08:08:08;;;;;;;27.25;22.35;;;;;;;;;;5003782;28;20276;-58
2020/12/14 08:10:34;;;;;;;28.40;22.50;;;;;;;;;;5003176;28;20300;-58
2020/12/14 08:13:09;;;;;;;30.67;23.07;;;;;;;;;;5004021;28;20178;-58
2020/12/14 08:15:34;;;;;;;28.27;22.33;;;;;;;;;;5004118;28;21147;-58
2020/12/14 08:18:01;;;;;;;27.13;21.03;;;;;;;;;;5013050;28;20604;-58
2020/12/14 08:20:30;;;;;;;27.97;22.70;;;;;;;;;;5019561;28;20177;-58
2020/12/14 08:22:58;;;;;;;25.43;19.70;;;;;;;;;;5007843;28;20646;-58
2020/12/14 08:25:31;;;;;;;22.60;19.43;;;;;;;;;;5005413;28;21289;-58
2020/12/14 08:27:57;;;;;;;21.17;17.97;;;;;;;;;;5014044;28;20609;-58
2020/12/14 08:30:25;;;;;;;25.70;19.47;;;;;;;;;;5019065;28;20596;-58
2020/12/14 08:33:06;;;;;;;21.83;18.43;;;;;;;;;;4996869;28;20632;-57
2020/12/14 08:35:31;;;;;;;23.30;17.73;;;;;;;;;;5011299;28;20674;-58
2020/12/14 08:38:01;;;;;;;25.80;19.00;;;;;;;;;;5016268;28;21349;-58
2020/12/14 08:40:26;;;;;;;22.80;18.60;;;;;;;;;;5021125;28;20581;-58
2020/12/14 08:42:51;;;;;;;22.03;17.33;;;;;;;;;;5008321;28;20641;-58
2020/12/14 08:45:17;;;;;;;21.05;17.20;;;;;;;;;;5000755;28;20187;-58
2020/12/14 08:47:42;;;;;;;25.03;18.80;;;;;;;;;;5007618;28;20189;-58
2020/12/14 08:50:09;;;;;;;20.30;16.53;;;;;;;;;;5000509;28;20223;-59
2020/12/14 08:52:34;;;;;;;20.17;16.20;;;;;;;;;;5001879;28;20171;-58
2020/12/14 08:55:00;;;;;;;19.47;15.97;;;;;;;;;;5007179;28;20616;-58
2020/12/14 08:57:29;;;;;;;20.20;16.20;;;;;;;;;;5015302;28;20560;-57
2020/12/14 09:00:04;;;;;;;18.90;15.30;;;;;;;;;;5014349;28;20181;-58
2020/12/14 09:02:30;;;;;;;18.17;14.20;;;;;;;;;;5014721;28;21465;-58
2020/12/14 09:04:56;;;;;;;17.30;14.60;;;;;;;;;;5019509;28;20592;-56
2020/12/14 09:07:22;;;;;;;15.77;13.13;;;;;;;;;;5021462;28;20251;-57
2020/12/14 09:09:47;;;;;;;18.23;13.70;;;;;;;;;;5010026;28;20693;-57
2020/12/14 09:12:13;;;;;;;13.23;11.65;;;;;;;;;;5019224;28;20607;-57
2020/12/14 09:14:38;;;;;;;13.83;11.10;;;;;;;;;;5021139;28;20322;-58
2020/12/14 09:17:04;;;;;;;15.90;12.10;;;;;;;;;;5018110;28;20171;-58
2020/12/14 09:19:30;;;;;;;15.37;10.97;;;;;;;;;;5015185;28;20386;-57
2020/12/14 09:21:56;;;;;;;13.47;11.63;;;;;;;;;;5009192;28;21165;-57
2020/12/14 09:24:24;;;;;;;10.83;9.63;;;;;;;;;;5016411;28;20611;-55
2020/12/14 09:26:50;;;;;;;13.10;10.63;;;;;;;;;;5023370;28;20183;-58
2020/12/14 09:29:15;;;;;;;9.87;8.87;;;;;;;;;;5017576;28;20664;-59
2020/12/14 09:31:51;;;;;;;11.37;10.17;;;;;;;;;;5016200;28;20597;-56
2020/12/14 09:34:17;;;;;;;11.30;9.57;;;;;;;;;;5010430;28;20178;-56
2020/12/14 09:36:42;;;;;;;13.17;9.83;;;;;;;;;;5017846;28;20957;-56
2020/12/14 09:39:07;;;;;;;13.18;10.50;;;;;;;;;;5010086;28;20180;-56
2020/12/14 09:41:32;;;;;;;15.88;12.35;;;;;;;;;;5020893;28;20269;-57
2020/12/14 09:43:58;;;;;;;16.47;12.83;;;;;;;;;;5015519;28;20188;-57
2020/12/14 09:46:23;;;;;;;23.13;12.67;;;;;;;;;;5017603;28;20177;-57
2020/12/14 09:48:49;;;;;;;16.70;13.23;;;;;;;;;;5017688;28;20196;-56
2020/12/14 09:51:14;;;;;;;17.27;13.43;;;;;;;;;;5012442;28;20224;-56
2020/12/14 09:53:39;;;;;;;16.00;14.20;;;;;;;;;;5018973;28;20174;-57
2020/12/14 09:56:04;;;;;;;15.38;13.07;;;;;;;;;;5005767;28;20309;-56
2020/12/14 09:58:30;;;;;;;15.50;12.85;;;;;;;;;;5020927;28;20191;-58
2020/12/14 10:00:55;;;;;;;14.40;12.03;;;;;;;;;;5018250;28;20209;-57
2020/12/14 10:03:20;;;;;;;14.90;12.90;;;;;;;;;;5015520;28;20646;-57
2020/12/14 10:05:48;;;;;;;17.98;12.48;;;;;;;;;;5017810;28;20186;-57
2020/12/14 10:08:14;;;;;;;13.47;11.27;;;;;;;;;;5018833;28;20213;-57
2020/12/14 10:10:40;;;;;;;16.10;11.80;;;;;;;;;;5011419;28;20596;-58
2020/12/14 10:13:05;;;;;;;13.87;10.33;;;;;;;;;;5020435;28;20602;-58
2020/12/14 10:15:30;;;;;;;11.40;10.20;;;;;;;;;;5010482;28;20197;-58
2020/12/14 10:17:55;;;;;;;11.40;9.00;;;;;;;;;;5016730;28;20212;-58
2020/12/14 10:20:20;;;;;;;11.13;9.90;;;;;;;;;;5018037;28;20730;-58
2020/12/14 10:22:45;;;;;;;9.52;8.52;;;;;;;;;;5012985;28;20220;-58
2020/12/14 10:25:11;;;;;;;10.80;9.40;;;;;;;;;;5015831;28;20229;-58
2020/12/14 10:27:37;;;;;;;12.07;9.00;;;;;;;;;;5020854;28;20191;-58
2020/12/14 10:30:02;;;;;;;9.90;8.17;;;;;;;;;;5020640;28;20201;-58
2020/12/14 10:32:28;;;;;;;9.17;7.87;;;;;;;;;;5002109;28;20611;-58
2020/12/14 10:34:53;;;;;;;9.03;8.13;;;;;;;;;;5020536;28;20639;-58
2020/12/14 10:37:18;;;;;;;8.20;7.30;;;;;;;;;;5018818;28;20169;-57
2020/12/14 10:39:43;;;;;;;8.95;8.05;;;;;;;;;;5014010;28;20173;-58
2020/12/14 10:42:08;;;;;;;7.85;7.05;;;;;;;;;;5016673;28;20321;-58
2020/12/14 10:44:33;;;;;;;10.00;7.70;;;;;;;;;;5016456;28;20229;-57
2020/12/14 10:47:02;;;;;;;8.75;7.65;;;;;;;;;;5016291;28;20260;-57
2020/12/14 10:49:28;;;;;;;7.80;7.00;;;;;;;;;;5017363;28;20203;-57
2020/12/14 10:51:53;;;;;;;8.27;7.47;;;;;;;;;;5019728;28;20582;-57
2020/12/14 10:54:18;;;;;;;9.60;8.60;;;;;;;;;;5015562;28;20177;-58
2020/12/14 10:56:44;;;;;;;9.82;8.82;;;;;;;;;;5019674;28;20613;-57
2020/12/14 10:59:10;;;;;;;10.10;8.80;;;;;;;;;;5019684;28;20172;-57
2020/12/14 11:01:35;;;;;;;10.30;8.88;;;;;;;;;;5021906;28;20618;-57
2020/12/14 11:04:00;;;;;;;10.35;9.35;;;;;;;;;;5011160;28;20178;-57
2020/12/14 11:06:29;;;;;;;9.98;7.90;;;;;;;;;;5019214;28;20239;-56
2020/12/14 11:08:54;;;;;;;11.50;10.33;;;;;;;;;;5017215;28;20219;-57
2020/12/14 11:11:19;;;;;;;11.55;9.77;;;;;;;;;;5004167;28;20635;-57
2020/12/14 11:13:44;;;;;;;11.93;10.65;;;;;;;;;;5005946;28;20194;-58
2020/12/14 11:16:09;;;;;;;11.60;10.13;;;;;;;;;;5010894;28;20650;-57
2020/12/14 11:18:34;;;;;;;12.97;11.67;;;;;;;;;;5013509;28;20795;-57
2020/12/14 11:20:59;;;;;;;13.80;12.17;;;;;;;;;;5023662;28;20169;-56
2020/12/14 11:23:25;;;;;;;12.35;11.05;;;;;;;;;;5020759;28;20196;-57
2020/12/14 11:25:50;;;;;;;14.73;13.23;;;;;;;;;;5006598;28;20209;-57
2020/12/14 11:28:15;;;;;;;15.63;12.70;;;;;;;;;;5020162;28;20214;-57
2020/12/14 11:30:40;;;;;;;17.15;12.73;;;;;;;;;;5011302;28;20650;-58
2020/12/14 11:33:05;;;;;;;16.33;13.50;;;;;;;;;;5014216;28;20176;-56
2020/12/14 11:35:30;;;;;;;14.10;12.52;;;;;;;;;;5013547;28;20203;-56
2020/12/14 11:37:55;;;;;;;18.10;13.00;;;;;;;;;;5019574;28;20554;-57
2020/12/14 11:40:21;;;;;;;16.10;13.40;;;;;;;;;;5019068;28;20190;-56
2020/12/14 11:42:46;;;;;;;14.47;12.87;;;;;;;;;;5008370;28;20180;-56
2020/12/14 11:45:11;;;;;;;15.30;13.65;;;;;;;;;;5004877;28;20232;-55
2020/12/14 11:47:36;;;;;;;15.17;13.43;;;;;;;;;;5013164;28;20329;-55
2020/12/14 11:50:10;;;;;;;15.60;13.37;;;;;;;;;;5018065;28;20208;-56
2020/12/14 11:52:36;;;;;;;16.70;13.57;;;;;;;;;;5007424;28;20676;-57
2020/12/14 11:55:03;;;;;;;17.23;13.13;;;;;;;;;;5022188;28;20605;-57
2020/12/14 11:57:28;;;;;;;17.90;15.10;;;;;;;;;;5017519;28;20184;-57
2020/12/14 11:59:53;;;;;;;15.68;13.63;;;;;;;;;;5014732;28;20605;-59
2020/12/14 12:02:18;;;;;;;21.30;17.15;;;;;;;;;;5014136;28;20197;-58
2020/12/14 12:04:53;;;;;;;18.97;14.50;;;;;;;;;;5008546;28;20257;-58
2020/12/14 12:07:18;;;;;;;17.63;14.67;;;;;;;;;;5015005;28;20274;-58
2020/12/14 12:09:43;;;;;;;17.95;14.73;;;;;;;;;;5012345;28;20740;-58
2020/12/14 12:12:09;;;;;;;18.33;14.20;;;;;;;;;;5011141;28;20177;-58
2020/12/14 12:14:34;;;;;;;16.37;14.27;;;;;;;;;;5013552;28;20652;-58
2020/12/14 12:16:59;;;;;;;18.05;14.27;;;;;;;;;;5008933;28;20532;-59
2020/12/14 12:19:24;;;;;;;18.87;15.77;;;;;;;;;;4998618;28;20655;-58
2020/12/14 12:21:49;;;;;;;18.20;14.80;;;;;;;;;;5000029;28;20733;-58
2020/12/14 12:24:15;;;;;;;21.33;15.50;;;;;;;;;;4997469;28;20197;-57
2020/12/14 12:26:40;;;;;;;18.80;15.87;;;;;;;;;;5014183;28;20234;-57
2020/12/14 12:29:05;;;;;;;18.93;15.37;;;;;;;;;;5007593;28;20218;-57
2020/12/14 12:31:30;;;;;;;20.23;14.63;;;;;;;;;;5017461;28;20555;-57
2020/12/14 12:33:55;;;;;;;17.75;14.90;;;;;;;;;;5004239;28;20687;-57
2020/12/14 12:36:21;;;;;;;19.37;14.60;;;;;;;;;;5009225;28;20183;-56
2020/12/14 12:38:46;;;;;;;18.00;14.40;;;;;;;;;;5022131;28;20183;-57
2020/12/14 12:41:11;;;;;;;17.77;14.68;;;;;;;;;;5014892;28;20264;-57
2020/12/14 12:43:36;;;;;;;14.88;13.35;;;;;;;;;;5007712;28;20190;-57
2020/12/14 12:46:01;;;;;;;18.77;14.93;;;;;;;;;;5003983;28;20179;-58
2020/12/14 12:48:26;;;;;;;17.92;13.95;;;;;;;;;;5011760;28;20251;-57
2020/12/14 12:50:55;;;;;;;16.17;13.85;;;;;;;;;;5012299;28;20173;-57
2020/12/14 12:53:20;;;;;;;16.17;13.53;;;;;;;;;;5014026;28;20268;-56
2020/12/14 12:55:46;;;;;;;14.97;13.10;;;;;;;;;;5014502;28;20925;-57
2020/12/14 12:58:11;;;;;;;15.70;14.00;;;;;;;;;;5004556;28;20592;-57
2020/12/14 13:00:36;;;;;;;16.53;13.50;;;;;;;;;;5010493;28;20774;-57
2020/12/14 13:03:01;;;;;;;18.60;13.95;;;;;;;;;;5024086;28;20633;-57
2020/12/14 13:05:27;;;;;;;18.65;13.80;;;;;;;;;;4995509;28;20693;-58
2020/12/14 13:07:52;;;;;;;18.60;14.63;;;;;;;;;;5018030;28;20192;-58
2020/12/14 13:10:17;;;;;;;18.63;13.65;;;;;;;;;;5018021;28;20242;-58
2020/12/14 13:12:42;;;;;;;18.77;15.00;;;;;;;;;;5010305;28;20627;-58
2020/12/14 13:15:07;;;;;;;18.60;15.13;;;;;;;;;;5016717;28;20174;-58
2020/12/14 13:17:32;;;;;;;18.67;15.40;;;;;;;;;;5011075;28;20208;-57
2020/12/14 13:19:57;;;;;;;20.57;16.23;;;;;;;;;;5011633;28;20546;-57
2020/12/14 13:22:23;;;;;;;23.33;16.92;;;;;;;;;;5008537;28;20708;-57
2020/12/14 13:24:48;;;;;;;23.43;17.80;;;;;;;;;;5003066;28;20235;-57
2020/12/14 13:27:13;;;;;;;20.38;17.17;;;;;;;;;;5016837;28;20263;-58
2020/12/14 13:29:38;;;;;;;20.80;16.80;;;;;;;;;;5010413;28;20285;-57
2020/12/14 13:32:03;;;;;;;23.03;18.33;;;;;;;;;;5006647;28;20186;-57
2020/12/14 13:34:28;;;;;;;23.13;18.80;;;;;;;;;;5005683;28;20203;-57
2020/12/14 13:36:56;;;;;;;22.97;18.00;;;;;;;;;;5009338;28;20665;-58
2020/12/14 13:39:23;;;;;;;26.00;20.10;;;;;;;;;;5015703;28;20185;-57
2020/12/14 13:41:48;;;;;;;26.30;20.10;;;;;;;;;;5004232;28;20605;-57
2020/12/14 13:44:13;;;;;;;23.13;19.15;;;;;;;;;;5010675;28;20964;-58
2020/12/14 13:46:38;;;;;;;24.80;19.23;;;;;;;;;;5014478;28;20288;-58
2020/12/14 13:49:03;;;;;;;24.83;19.05;;;;;;;;;;5005992;28;20627;-56
2020/12/14 13:51:29;;;;;;;22.27;18.57;;;;;;;;;;5004989;28;20174;-57
2020/12/14 13:53:54;;;;;;;23.80;19.80;;;;;;;;;;5009626;28;20741;-57
2020/12/14 13:56:19;;;;;;;25.10;20.48;;;;;;;;;;5010892;28;20185;-56
2020/12/14 13:58:44;;;;;;;24.03;18.80;;;;;;;;;;5016792;28;20277;-56
2020/12/14 14:01:10;;;;;;;25.97;20.43;;;;;;;;;;4998558;28;20250;-58
2020/12/14 14:03:35;;;;;;;25.53;19.90;;;;;;;;;;5012257;28;20169;-57
2020/12/14 14:06:13;;;;;;;26.48;21.13;;;;;;;;;;5007104;28;20655;-58
2020/12/14 14:08:38;;;;;;;26.53;21.80;;;;;;;;;;5000889;28;20566;-59
2020/12/14 14:11:03;;;;;;;25.63;21.20;;;;;;;;;;5010669;28;20608;-57
2020/12/14 14:13:28;;;;;;;30.13;22.50;;;;;;;;;;4999948;28;20185;-57
2020/12/14 14:15:54;;;;;;;26.70;21.50;;;;;;;;;;5004380;28;20246;-55